You are not logged in, Click here to log in
雅典國際機場ATH / LGAV 希臘-斯帕塔
ICAO: LGAV Country: 希臘-斯帕塔
Latitude: 37.9364 Longitude: 23.9445
Total Arrivals: 13 Total Departures: 17
Latest Arrival: JU512 (LYBE-LGAV)Lun. Wang Latest Departure: A3944 (LGAV-OLBA)Lun. Wang
Scenery:
METAR : LGAV 121950Z VRB03KT CAVOK 26/11 Q1011 NOSIG

雅典國際機場ATH

You are accessing this site from IP address 35.168.112.145. Virtual Airline. CMS by phpVMS.Website designed by Zumeweb and edited by Theo Bearman.
There is 0 User(s) Online: | and 14 Guest(s) Online.
All information on this site is for fight simulation purposes only. This site is for flight logging for pilots of Virtual Airline&模擬飛行論壇 FlySim only.